sensor_id;sensor_type;location;lat;lon;timestamp;temperature;humidity
4651;DHT22;2338;49.602;8.722;2023-09-08T00:00:48;16.20;99.90
4651;DHT22;2338;49.602;8.722;2023-09-08T00:03:34;16.20;99.90
4651;DHT22;2338;49.602;8.722;2023-09-08T00:06:19;16.20;99.90
4651;DHT22;2338;49.602;8.722;2023-09-08T00:09:05;16.30;99.90
4651;DHT22;2338;49.602;8.722;2023-09-08T00:11:50;16.30;99.90
4651;DHT22;2338;49.602;8.722;2023-09-08T00:14:36;16.30;99.90
4651;DHT22;2338;49.602;8.722;2023-09-08T00:17:24;16.30;99.90
4651;DHT22;2338;49.602;8.722;2023-09-08T00:20:10;16.30;99.90
4651;DHT22;2338;49.602;8.722;2023-09-08T00:22:56;16.20;99.90
4651;DHT22;2338;49.602;8.722;2023-09-08T00:25:42;16.30;99.90
4651;DHT22;2338;49.602;8.722;2023-09-08T00:28:27;16.30;99.90
4651;DHT22;2338;49.602;8.722;2023-09-08T00:31:13;16.30;99.90
4651;DHT22;2338;49.602;8.722;2023-09-08T00:34:00;16.20;99.90
4651;DHT22;2338;49.602;8.722;2023-09-08T00:36:46;16.20;99.90
4651;DHT22;2338;49.602;8.722;2023-09-08T00:39:31;16.20;99.90
4651;DHT22;2338;49.602;8.722;2023-09-08T00:42:17;16.10;99.90
4651;DHT22;2338;49.602;8.722;2023-09-08T00:45:03;16.10;99.90
4651;DHT22;2338;49.602;8.722;2023-09-08T00:47:49;16.00;99.90
4651;DHT22;2338;49.602;8.722;2023-09-08T00:50:37;15.90;99.90
4651;DHT22;2338;49.602;8.722;2023-09-08T00:53:23;16.00;99.90
4651;DHT22;2338;49.602;8.722;2023-09-08T00:56:09;16.10;99.90
4651;DHT22;2338;49.602;8.722;2023-09-08T00:58:55;16.10;99.90
4651;DHT22;2338;49.602;8.722;2023-09-08T01:01:41;16.20;99.90
4651;DHT22;2338;49.602;8.722;2023-09-08T01:04:27;16.20;99.90
4651;DHT22;2338;49.602;8.722;2023-09-08T01:07:15;15.90;99.90
4651;DHT22;2338;49.602;8.722;2023-09-08T01:10:01;16.00;99.90
4651;DHT22;2338;49.602;8.722;2023-09-08T01:12:50;15.90;99.90
4651;DHT22;2338;49.602;8.722;2023-09-08T01:15:36;15.90;99.90
4651;DHT22;2338;49.602;8.722;2023-09-08T01:18:22;15.90;99.90
4651;DHT22;2338;49.602;8.722;2023-09-08T01:21:44;15.80;99.90
4651;DHT22;2338;49.602;8.722;2023-09-08T01:25:01;15.80;99.90
4651;DHT22;2338;49.602;8.722;2023-09-08T01:27:51;15.80;99.90
4651;DHT22;2338;49.602;8.722;2023-09-08T01:30:37;15.80;99.90
4651;DHT22;2338;49.602;8.722;2023-09-08T01:33:24;15.80;99.90
4651;DHT22;2338;49.602;8.722;2023-09-08T01:36:10;15.90;99.90
4651;DHT22;2338;49.602;8.722;2023-09-08T01:38:56;15.80;99.90
4651;DHT22;2338;49.602;8.722;2023-09-08T01:41:43;15.80;99.90
4651;DHT22;2338;49.602;8.722;2023-09-08T01:44:29;15.80;99.90
4651;DHT22;2338;49.602;8.722;2023-09-08T01:47:15;15.80;99.90
4651;DHT22;2338;49.602;8.722;2023-09-08T01:50:01;15.70;99.90
4651;DHT22;2338;49.602;8.722;2023-09-08T01:52:47;15.60;99.90
4651;DHT22;2338;49.602;8.722;2023-09-08T01:55:32;15.60;99.90
4651;DHT22;2338;49.602;8.722;2023-09-08T01:58:19;15.50;99.90
4651;DHT22;2338;49.602;8.722;2023-09-08T02:01:05;15.50;99.90
4651;DHT22;2338;49.602;8.722;2023-09-08T02:03:51;15.50;99.90
4651;DHT22;2338;49.602;8.722;2023-09-08T02:06:36;15.60;99.90
4651;DHT22;2338;49.602;8.722;2023-09-08T02:09:29;15.60;99.90
4651;DHT22;2338;49.602;8.722;2023-09-08T02:12:15;15.50;99.90
4651;DHT22;2338;49.602;8.722;2023-09-08T02:15:03;15.50;99.90
4651;DHT22;2338;49.602;8.722;2023-09-08T02:17:52;15.40;99.90
4651;DHT22;2338;49.602;8.722;2023-09-08T02:20:38;15.30;99.90
4651;DHT22;2338;49.602;8.722;2023-09-08T02:23:24;15.30;99.90
4651;DHT22;2338;49.602;8.722;2023-09-08T02:26:10;15.20;99.90
4651;DHT22;2338;49.602;8.722;2023-09-08T02:28:56;15.20;99.90
4651;DHT22;2338;49.602;8.722;2023-09-08T02:31:43;15.30;99.90
4651;DHT22;2338;49.602;8.722;2023-09-08T02:34:29;15.40;99.90
4651;DHT22;2338;49.602;8.722;2023-09-08T02:37:16;15.40;99.90
4651;DHT22;2338;49.602;8.722;2023-09-08T02:40:04;15.30;99.90
4651;DHT22;2338;49.602;8.722;2023-09-08T02:42:50;15.40;99.90
4651;DHT22;2338;49.602;8.722;2023-09-08T02:45:36;15.30;99.90
4651;DHT22;2338;49.602;8.722;2023-09-08T02:48:24;15.30;99.90
4651;DHT22;2338;49.602;8.722;2023-09-08T02:51:09;15.40;99.90
4651;DHT22;2338;49.602;8.722;2023-09-08T02:53:56;15.40;99.90
4651;DHT22;2338;49.602;8.722;2023-09-08T02:56:42;15.40;99.90
4651;DHT22;2338;49.602;8.722;2023-09-08T02:59:27;15.40;99.90
4651;DHT22;2338;49.602;8.722;2023-09-08T03:02:13;15.40;99.90
4651;DHT22;2338;49.602;8.722;2023-09-08T03:05:00;15.30;99.90
4651;DHT22;2338;49.602;8.722;2023-09-08T03:07:47;15.30;99.90
4651;DHT22;2338;49.602;8.722;2023-09-08T03:10:33;15.20;99.90
4651;DHT22;2338;49.602;8.722;2023-09-08T03:13:20;15.00;99.90
4651;DHT22;2338;49.602;8.722;2023-09-08T03:16:07;15.00;99.90
4651;DHT22;2338;49.602;8.722;2023-09-08T03:18:52;15.00;99.90
4651;DHT22;2338;49.602;8.722;2023-09-08T03:21:39;15.00;99.90
4651;DHT22;2338;49.602;8.722;2023-09-08T03:24:25;15.10;99.90
4651;DHT22;2338;49.602;8.722;2023-09-08T03:27:11;15.10;99.90
4651;DHT22;2338;49.602;8.722;2023-09-08T03:29:57;15.00;99.90
4651;DHT22;2338;49.602;8.722;2023-09-08T03:32:42;15.10;99.90
4651;DHT22;2338;49.602;8.722;2023-09-08T03:35:28;15.10;99.90
4651;DHT22;2338;49.602;8.722;2023-09-08T03:38:15;15.10;99.90
4651;DHT22;2338;49.602;8.722;2023-09-08T03:41:00;15.00;99.90
4651;DHT22;2338;49.602;8.722;2023-09-08T03:43:46;14.90;99.90
4651;DHT22;2338;49.602;8.722;2023-09-08T03:46:33;14.80;99.90
4651;DHT22;2338;49.602;8.722;2023-09-08T03:49:19;14.80;99.90
4651;DHT22;2338;49.602;8.722;2023-09-08T03:52:05;14.90;99.90
4651;DHT22;2338;49.602;8.722;2023-09-08T03:54:52;14.90;99.90
4651;DHT22;2338;49.602;8.722;2023-09-08T03:57:38;15.00;99.90
4651;DHT22;2338;49.602;8.722;2023-09-08T04:00:23;15.00;99.90
4651;DHT22;2338;49.602;8.722;2023-09-08T04:03:09;15.10;99.90
4651;DHT22;2338;49.602;8.722;2023-09-08T04:05:55;15.00;99.90
4651;DHT22;2338;49.602;8.722;2023-09-08T04:08:41;15.00;99.90
4651;DHT22;2338;49.602;8.722;2023-09-08T04:11:28;15.00;99.90
4651;DHT22;2338;49.602;8.722;2023-09-08T04:14:14;14.90;99.90
4651;DHT22;2338;49.602;8.722;2023-09-08T04:16:59;14.80;99.90
4651;DHT22;2338;49.602;8.722;2023-09-08T04:19:45;14.80;99.90
4651;DHT22;2338;49.602;8.722;2023-09-08T04:22:31;14.80;99.90
4651;DHT22;2338;49.602;8.722;2023-09-08T04:25:16;14.80;99.90
4651;DHT22;2338;49.602;8.722;2023-09-08T04:28:04;14.80;99.90
4651;DHT22;2338;49.602;8.722;2023-09-08T04:30:50;14.70;99.90
4651;DHT22;2338;49.602;8.722;2023-09-08T04:33:36;14.90;99.90
4651;DHT22;2338;49.602;8.722;2023-09-08T04:36:21;14.90;99.90
4651;DHT22;2338;49.602;8.722;2023-09-08T04:39:07;14.90;99.90
4651;DHT22;2338;49.602;8.722;2023-09-08T04:41:55;14.90;99.90
4651;DHT22;2338;49.602;8.722;2023-09-08T04:44:42;14.90;99.90
4651;DHT22;2338;49.602;8.722;2023-09-08T04:47:27;14.80;99.90
4651;DHT22;2338;49.602;8.722;2023-09-08T04:50:13;14.70;99.90
4651;DHT22;2338;49.602;8.722;2023-09-08T04:52:59;14.70;99.90
4651;DHT22;2338;49.602;8.722;2023-09-08T04:55:45;14.80;99.90
4651;DHT22;2338;49.602;8.722;2023-09-08T04:58:30;14.80;99.90
4651;DHT22;2338;49.602;8.722;2023-09-08T05:01:17;14.80;99.90
4651;DHT22;2338;49.602;8.722;2023-09-08T05:04:04;14.90;99.90
4651;DHT22;2338;49.602;8.722;2023-09-08T05:06:49;14.90;99.90
4651;DHT22;2338;49.602;8.722;2023-09-08T05:09:35;15.00;99.90
4651;DHT22;2338;49.602;8.722;2023-09-08T05:12:21;14.90;99.90
4651;DHT22;2338;49.602;8.722;2023-09-08T05:15:08;14.90;99.90
4651;DHT22;2338;49.602;8.722;2023-09-08T05:18:00;14.90;99.90
4651;DHT22;2338;49.602;8.722;2023-09-08T05:20:47;14.90;99.90
4651;DHT22;2338;49.602;8.722;2023-09-08T05:23:33;14.90;99.90
4651;DHT22;2338;49.602;8.722;2023-09-08T05:26:19;14.80;99.90
4651;DHT22;2338;49.602;8.722;2023-09-08T05:29:05;14.80;99.90
4651;DHT22;2338;49.602;8.722;2023-09-08T05:31:51;14.70;99.90
4651;DHT22;2338;49.602;8.722;2023-09-08T05:34:38;14.60;99.90
4651;DHT22;2338;49.602;8.722;2023-09-08T05:37:24;14.70;99.90
4651;DHT22;2338;49.602;8.722;2023-09-08T05:40:10;14.80;99.90
4651;DHT22;2338;49.602;8.722;2023-09-08T05:42:56;14.90;99.90
4651;DHT22;2338;49.602;8.722;2023-09-08T05:45:42;15.00;99.90
4651;DHT22;2338;49.602;8.722;2023-09-08T05:48:28;15.00;99.90
4651;DHT22;2338;49.602;8.722;2023-09-08T05:51:15;14.90;99.90
4651;DHT22;2338;49.602;8.722;2023-09-08T05:54:01;14.90;99.90
4651;DHT22;2338;49.602;8.722;2023-09-08T05:56:47;14.80;99.90
4651;DHT22;2338;49.602;8.722;2023-09-08T05:59:32;14.70;99.90
4651;DHT22;2338;49.602;8.722;2023-09-08T06:02:18;14.80;99.90
4651;DHT22;2338;49.602;8.722;2023-09-08T06:05:04;15.00;99.90
4651;DHT22;2338;49.602;8.722;2023-09-08T06:07:51;15.20;99.90
4651;DHT22;2338;49.602;8.722;2023-09-08T06:10:37;15.40;99.90
4651;DHT22;2338;49.602;8.722;2023-09-08T06:13:23;15.50;99.90
4651;DHT22;2338;49.602;8.722;2023-09-08T06:16:09;15.60;99.90
4651;DHT22;2338;49.602;8.722;2023-09-08T06:18:55;15.70;99.90
4651;DHT22;2338;49.602;8.722;2023-09-08T06:21:40;15.90;99.90
4651;DHT22;2338;49.602;8.722;2023-09-08T06:24:27;16.10;99.90
4651;DHT22;2338;49.602;8.722;2023-09-08T06:27:14;16.20;99.90
4651;DHT22;2338;49.602;8.722;2023-09-08T06:30:00;16.20;99.90
4651;DHT22;2338;49.602;8.722;2023-09-08T06:32:45;16.30;99.90
4651;DHT22;2338;49.602;8.722;2023-09-08T06:35:31;16.40;99.90
4651;DHT22;2338;49.602;8.722;2023-09-08T06:38:18;16.50;99.90
4651;DHT22;2338;49.602;8.722;2023-09-08T06:41:10;16.50;99.90
4651;DHT22;2338;49.602;8.722;2023-09-08T06:43:56;16.70;99.90
4651;DHT22;2338;49.602;8.722;2023-09-08T06:46:41;16.80;99.90
4651;DHT22;2338;49.602;8.722;2023-09-08T06:49:27;16.80;99.90
4651;DHT22;2338;49.602;8.722;2023-09-08T06:52:13;17.00;99.90
4651;DHT22;2338;49.602;8.722;2023-09-08T06:54:58;17.10;99.90
4651;DHT22;2338;49.602;8.722;2023-09-08T06:57:46;17.20;99.90
4651;DHT22;2338;49.602;8.722;2023-09-08T07:00:31;17.30;99.90
4651;DHT22;2338;49.602;8.722;2023-09-08T07:03:17;17.50;99.90
4651;DHT22;2338;49.602;8.722;2023-09-08T07:06:03;17.60;99.90
4651;DHT22;2338;49.602;8.722;2023-09-08T07:08:48;17.70;99.90
4651;DHT22;2338;49.602;8.722;2023-09-08T07:11:34;17.80;99.90
4651;DHT22;2338;49.602;8.722;2023-09-08T07:14:21;18.00;99.90
4651;DHT22;2338;49.602;8.722;2023-09-08T07:17:08;18.10;99.90
4651;DHT22;2338;49.602;8.722;2023-09-08T07:19:53;18.20;99.90
4651;DHT22;2338;49.602;8.722;2023-09-08T07:22:39;18.40;99.90
4651;DHT22;2338;49.602;8.722;2023-09-08T07:25:25;18.60;99.90
4651;DHT22;2338;49.602;8.722;2023-09-08T07:28:11;18.70;99.90
4651;DHT22;2338;49.602;8.722;2023-09-08T07:31:02;18.90;99.90
4651;DHT22;2338;49.602;8.722;2023-09-08T07:33:48;19.00;99.90
4651;DHT22;2338;49.602;8.722;2023-09-08T07:36:35;19.20;99.90
4651;DHT22;2338;49.602;8.722;2023-09-08T07:39:21;19.30;99.90
4651;DHT22;2338;49.602;8.722;2023-09-08T07:42:06;19.40;99.90
4651;DHT22;2338;49.602;8.722;2023-09-08T07:44:52;19.60;99.90
4651;DHT22;2338;49.602;8.722;2023-09-08T07:47:40;19.70;99.90
4651;DHT22;2338;49.602;8.722;2023-09-08T07:50:27;19.90;99.90
4651;DHT22;2338;49.602;8.722;2023-09-08T07:53:13;20.00;99.90
4651;DHT22;2338;49.602;8.722;2023-09-08T07:55:58;20.20;99.90
4651;DHT22;2338;49.602;8.722;2023-09-08T07:58:44;20.30;99.90
4651;DHT22;2338;49.602;8.722;2023-09-08T08:01:30;20.50;99.90
4651;DHT22;2338;49.602;8.722;2023-09-08T08:04:18;20.60;99.90
4651;DHT22;2338;49.602;8.722;2023-09-08T08:07:03;20.70;99.90
4651;DHT22;2338;49.602;8.722;2023-09-08T08:09:49;20.80;99.90
4651;DHT22;2338;49.602;8.722;2023-09-08T08:12:35;20.90;99.90
4651;DHT22;2338;49.602;8.722;2023-09-08T08:15:21;21.10;99.90
4651;DHT22;2338;49.602;8.722;2023-09-08T08:18:06;21.20;99.90
4651;DHT22;2338;49.602;8.722;2023-09-08T08:20:55;21.40;99.90
4651;DHT22;2338;49.602;8.722;2023-09-08T08:23:41;21.50;99.90
4651;DHT22;2338;49.602;8.722;2023-09-08T08:26:26;21.70;99.90
4651;DHT22;2338;49.602;8.722;2023-09-08T08:29:16;21.80;99.90
4651;DHT22;2338;49.602;8.722;2023-09-08T08:32:02;21.90;99.90
4651;DHT22;2338;49.602;8.722;2023-09-08T08:34:48;22.00;99.90
4651;DHT22;2338;49.602;8.722;2023-09-08T08:37:36;22.10;99.90
4651;DHT22;2338;49.602;8.722;2023-09-08T08:40:22;22.20;99.90
4651;DHT22;2338;49.602;8.722;2023-09-08T08:43:11;22.40;99.90
4651;DHT22;2338;49.602;8.722;2023-09-08T08:45:58;22.50;99.90
4651;DHT22;2338;49.602;8.722;2023-09-08T08:48:45;22.60;99.90
4651;DHT22;2338;49.602;8.722;2023-09-08T08:51:32;22.70;99.90
4651;DHT22;2338;49.602;8.722;2023-09-08T08:54:20;22.70;99.90
4651;DHT22;2338;49.602;8.722;2023-09-08T08:57:06;22.80;99.90
4651;DHT22;2338;49.602;8.722;2023-09-08T08:59:52;22.90;99.90
4651;DHT22;2338;49.602;8.722;2023-09-08T09:02:40;23.00;99.90
4651;DHT22;2338;49.602;8.722;2023-09-08T09:05:26;23.10;99.90
4651;DHT22;2338;49.602;8.722;2023-09-08T09:08:12;23.20;95.60
4651;DHT22;2338;49.602;8.722;2023-09-08T09:11:00;23.30;97.20
4651;DHT22;2338;49.602;8.722;2023-09-08T09:13:46;23.40;96.40
4651;DHT22;2338;49.602;8.722;2023-09-08T09:16:39;23.60;96.50
4651;DHT22;2338;49.602;8.722;2023-09-08T09:19:24;23.70;97.60
4651;DHT22;2338;49.602;8.722;2023-09-08T09:22:11;23.80;94.60
4651;DHT22;2338;49.602;8.722;2023-09-08T09:24:57;23.90;91.80
4651;DHT22;2338;49.602;8.722;2023-09-08T09:27:50;24.00;93.40
4651;DHT22;2338;49.602;8.722;2023-09-08T09:30:47;24.10;94.70
4651;DHT22;2338;49.602;8.722;2023-09-08T09:33:33;24.10;95.00
4651;DHT22;2338;49.602;8.722;2023-09-08T09:36:20;24.30;90.80
4651;DHT22;2338;49.602;8.722;2023-09-08T09:39:06;24.30;88.60
4651;DHT22;2338;49.602;8.722;2023-09-08T09:41:53;24.40;89.40
4651;DHT22;2338;49.602;8.722;2023-09-08T09:44:41;24.40;81.00
4651;DHT22;2338;49.602;8.722;2023-09-08T09:47:27;24.40;84.40
4651;DHT22;2338;49.602;8.722;2023-09-08T09:50:12;24.40;76.80
4651;DHT22;2338;49.602;8.722;2023-09-08T09:52:59;24.50;78.90
4651;DHT22;2338;49.602;8.722;2023-09-08T09:55:45;24.50;80.00
4651;DHT22;2338;49.602;8.722;2023-09-08T09:58:31;24.70;88.40
4651;DHT22;2338;49.602;8.722;2023-09-08T10:01:19;24.70;90.10
4651;DHT22;2338;49.602;8.722;2023-09-08T10:04:05;24.90;80.80
4651;DHT22;2338;49.602;8.722;2023-09-08T10:06:51;24.90;82.10
4651;DHT22;2338;49.602;8.722;2023-09-08T10:09:37;25.00;79.50
4651;DHT22;2338;49.602;8.722;2023-09-08T10:12:23;25.00;82.90
4651;DHT22;2338;49.602;8.722;2023-09-08T10:15:10;25.10;76.80
4651;DHT22;2338;49.602;8.722;2023-09-08T10:17:58;25.30;78.80
4651;DHT22;2338;49.602;8.722;2023-09-08T10:20:44;25.40;73.60
4651;DHT22;2338;49.602;8.722;2023-09-08T10:23:35;25.50;71.10
4651;DHT22;2338;49.602;8.722;2023-09-08T10:26:24;25.60;73.20
4651;DHT22;2338;49.602;8.722;2023-09-08T10:29:12;25.80;74.80
4651;DHT22;2338;49.602;8.722;2023-09-08T10:31:59;25.60;72.50
4651;DHT22;2338;49.602;8.722;2023-09-08T10:34:47;25.70;75.20
4651;DHT22;2338;49.602;8.722;2023-09-08T10:37:34;25.70;73.90
4651;DHT22;2338;49.602;8.722;2023-09-08T10:40:24;25.80;73.10
4651;DHT22;2338;49.602;8.722;2023-09-08T10:43:11;25.90;69.50
4651;DHT22;2338;49.602;8.722;2023-09-08T10:45:57;25.80;70.70
4651;DHT22;2338;49.602;8.722;2023-09-08T10:48:43;25.80;71.50
4651;DHT22;2338;49.602;8.722;2023-09-08T10:51:30;25.90;71.40
4651;DHT22;2338;49.602;8.722;2023-09-08T10:54:40;26.00;64.80
4651;DHT22;2338;49.602;8.722;2023-09-08T10:57:26;25.90;64.90
4651;DHT22;2338;49.602;8.722;2023-09-08T11:00:18;25.90;66.80
4651;DHT22;2338;49.602;8.722;2023-09-08T11:03:05;25.90;70.40
4651;DHT22;2338;49.602;8.722;2023-09-08T11:05:51;26.10;69.70
4651;DHT22;2338;49.602;8.722;2023-09-08T11:08:41;26.20;65.70
4651;DHT22;2338;49.602;8.722;2023-09-08T11:11:27;26.30;68.20
4651;DHT22;2338;49.602;8.722;2023-09-08T11:14:13;26.30;65.70
4651;DHT22;2338;49.602;8.722;2023-09-08T11:17:02;26.40;64.20
4651;DHT22;2338;49.602;8.722;2023-09-08T11:19:49;26.40;66.90
4651;DHT22;2338;49.602;8.722;2023-09-08T11:22:35;26.50;64.10
4651;DHT22;2338;49.602;8.722;2023-09-08T11:25:22;26.60;67.10
4651;DHT22;2338;49.602;8.722;2023-09-08T11:28:08;26.60;62.90
4651;DHT22;2338;49.602;8.722;2023-09-08T11:30:54;26.70;63.30
4651;DHT22;2338;49.602;8.722;2023-09-08T11:33:40;26.70;60.00
4651;DHT22;2338;49.602;8.722;2023-09-08T11:36:26;26.80;60.90
4651;DHT22;2338;49.602;8.722;2023-09-08T11:39:13;27.00;55.10
4651;DHT22;2338;49.602;8.722;2023-09-08T11:42:01;27.00;56.90
4651;DHT22;2338;49.602;8.722;2023-09-08T11:44:48;27.10;62.10
4651;DHT22;2338;49.602;8.722;2023-09-08T11:47:34;27.10;61.00
4651;DHT22;2338;49.602;8.722;2023-09-08T11:50:19;27.10;60.20
4651;DHT22;2338;49.602;8.722;2023-09-08T11:53:05;27.20;54.40
4651;DHT22;2338;49.602;8.722;2023-09-08T11:55:51;27.20;51.30
4651;DHT22;2338;49.602;8.722;2023-09-08T11:58:38;27.20;47.50
4651;DHT22;2338;49.602;8.722;2023-09-08T12:01:25;27.30;53.30
4651;DHT22;2338;49.602;8.722;2023-09-08T12:04:17;27.40;47.90
4651;DHT22;2338;49.602;8.722;2023-09-08T12:07:04;27.50;48.00
4651;DHT22;2338;49.602;8.722;2023-09-08T12:09:50;27.60;51.80
4651;DHT22;2338;49.602;8.722;2023-09-08T12:12:42;27.80;47.20
4651;DHT22;2338;49.602;8.722;2023-09-08T12:15:33;27.90;43.90
4651;DHT22;2338;49.602;8.722;2023-09-08T12:18:19;28.10;37.10
4651;DHT22;2338;49.602;8.722;2023-09-08T12:21:22;28.20;37.90
4651;DHT22;2338;49.602;8.722;2023-09-08T12:24:08;28.30;36.50
4651;DHT22;2338;49.602;8.722;2023-09-08T12:26:57;28.40;36.80
4651;DHT22;2338;49.602;8.722;2023-09-08T12:29:52;28.50;34.20
4651;DHT22;2338;49.602;8.722;2023-09-08T12:32:39;28.60;32.60
4651;DHT22;2338;49.602;8.722;2023-09-08T12:35:25;28.60;29.00
4651;DHT22;2338;49.602;8.722;2023-09-08T12:38:11;28.60;29.00
4651;DHT22;2338;49.602;8.722;2023-09-08T12:40:58;28.60;28.70
4651;DHT22;2338;49.602;8.722;2023-09-08T12:43:44;28.60;30.60
4651;DHT22;2338;49.602;8.722;2023-09-08T12:46:30;28.70;28.90
4651;DHT22;2338;49.602;8.722;2023-09-08T12:49:18;28.80;28.50
4651;DHT22;2338;49.602;8.722;2023-09-08T12:52:04;29.10;29.70
4651;DHT22;2338;49.602;8.722;2023-09-08T12:54:50;29.10;27.00
4651;DHT22;2338;49.602;8.722;2023-09-08T12:57:36;29.30;28.30
4651;DHT22;2338;49.602;8.722;2023-09-08T13:00:22;29.50;25.50
4651;DHT22;2338;49.602;8.722;2023-09-08T13:03:08;29.80;25.90
4651;DHT22;2338;49.602;8.722;2023-09-08T13:05:55;30.00;27.10
4651;DHT22;2338;49.602;8.722;2023-09-08T13:08:41;29.90;24.70
4651;DHT22;2338;49.602;8.722;2023-09-08T13:11:27;29.70;24.40
4651;DHT22;2338;49.602;8.722;2023-09-08T13:14:13;29.80;24.10
4651;DHT22;2338;49.602;8.722;2023-09-08T13:16:58;29.90;24.10
4651;DHT22;2338;49.602;8.722;2023-09-08T13:19:44;29.80;23.80
4651;DHT22;2338;49.602;8.722;2023-09-08T13:22:32;29.90;24.80
4651;DHT22;2338;49.602;8.722;2023-09-08T13:25:17;30.20;24.60
4651;DHT22;2338;49.602;8.722;2023-09-08T13:28:03;30.50;26.10
4651;DHT22;2338;49.602;8.722;2023-09-08T13:30:49;30.80;25.30
4651;DHT22;2338;49.602;8.722;2023-09-08T13:33:35;30.70;22.00
4651;DHT22;2338;49.602;8.722;2023-09-08T13:36:20;30.90;22.90
4651;DHT22;2338;49.602;8.722;2023-09-08T13:39:07;31.10;22.10
4651;DHT22;2338;49.602;8.722;2023-09-08T13:41:54;31.30;23.00
4651;DHT22;2338;49.602;8.722;2023-09-08T13:44:40;31.50;22.40
4651;DHT22;2338;49.602;8.722;2023-09-08T13:47:25;31.50;19.90
4651;DHT22;2338;49.602;8.722;2023-09-08T13:50:11;31.20;20.20
4651;DHT22;2338;49.602;8.722;2023-09-08T13:52:57;31.10;19.50
4651;DHT22;2338;49.602;8.722;2023-09-08T13:55:44;31.10;20.70
4651;DHT22;2338;49.602;8.722;2023-09-08T13:58:30;31.20;20.00
4651;DHT22;2338;49.602;8.722;2023-09-08T14:01:15;31.40;21.90
4651;DHT22;2338;49.602;8.722;2023-09-08T14:04:02;31.70;22.10
4651;DHT22;2338;49.602;8.722;2023-09-08T14:06:50;32.00;20.50
4651;DHT22;2338;49.602;8.722;2023-09-08T14:09:36;32.20;19.80
4651;DHT22;2338;49.602;8.722;2023-09-08T14:12:24;32.30;21.00
4651;DHT22;2338;49.602;8.722;2023-09-08T14:15:09;32.10;19.70
4651;DHT22;2338;49.602;8.722;2023-09-08T14:17:59;32.30;20.60
4651;DHT22;2338;49.602;8.722;2023-09-08T14:20:45;32.20;23.60
4651;DHT22;2338;49.602;8.722;2023-09-08T14:23:31;32.20;22.80
4651;DHT22;2338;49.602;8.722;2023-09-08T14:26:18;32.30;22.30
4651;DHT22;2338;49.602;8.722;2023-09-08T14:29:06;32.30;22.20
4651;DHT22;2338;49.602;8.722;2023-09-08T14:31:51;32.20;22.60
4651;DHT22;2338;49.602;8.722;2023-09-08T14:34:37;32.20;22.00
4651;DHT22;2338;49.602;8.722;2023-09-08T14:37:23;32.10;21.20
4651;DHT22;2338;49.602;8.722;2023-09-08T14:40:09;32.20;23.60
4651;DHT22;2338;49.602;8.722;2023-09-08T14:42:55;32.00;20.70
4651;DHT22;2338;49.602;8.722;2023-09-08T14:45:42;31.90;21.80
4651;DHT22;2338;49.602;8.722;2023-09-08T14:48:28;31.80;24.90
4651;DHT22;2338;49.602;8.722;2023-09-08T14:51:14;31.70;26.00
4651;DHT22;2338;49.602;8.722;2023-09-08T14:53:59;31.80;25.10
4651;DHT22;2338;49.602;8.722;2023-09-08T14:56:45;31.60;26.70
4651;DHT22;2338;49.602;8.722;2023-09-08T14:59:30;31.70;27.50
4651;DHT22;2338;49.602;8.722;2023-09-08T15:02:17;31.70;27.70
4651;DHT22;2338;49.602;8.722;2023-09-08T15:05:03;31.70;28.10
4651;DHT22;2338;49.602;8.722;2023-09-08T15:07:49;31.40;27.90
4651;DHT22;2338;49.602;8.722;2023-09-08T15:10:34;31.30;29.40
4651;DHT22;2338;49.602;8.722;2023-09-08T15:13:20;31.20;30.30
4651;DHT22;2338;49.602;8.722;2023-09-08T15:16:06;31.20;30.90
4651;DHT22;2338;49.602;8.722;2023-09-08T15:18:54;31.10;28.90
4651;DHT22;2338;49.602;8.722;2023-09-08T15:21:39;30.90;35.00
4651;DHT22;2338;49.602;8.722;2023-09-08T15:24:25;30.60;35.10
4651;DHT22;2338;49.602;8.722;2023-09-08T15:27:11;30.50;38.10
4651;DHT22;2338;49.602;8.722;2023-09-08T15:29:57;30.40;37.80
4651;DHT22;2338;49.602;8.722;2023-09-08T15:32:43;30.10;41.40
4651;DHT22;2338;49.602;8.722;2023-09-08T15:35:30;30.00;43.70
4651;DHT22;2338;49.602;8.722;2023-09-08T15:38:16;30.00;46.40
4651;DHT22;2338;49.602;8.722;2023-09-08T15:41:16;29.90;48.40
4651;DHT22;2338;49.602;8.722;2023-09-08T15:44:02;29.80;51.50
4651;DHT22;2338;49.602;8.722;2023-09-08T15:46:48;29.70;50.70
4651;DHT22;2338;49.602;8.722;2023-09-08T15:49:33;29.70;56.20
4651;DHT22;2338;49.602;8.722;2023-09-08T15:52:21;29.30;52.30
4651;DHT22;2338;49.602;8.722;2023-09-08T15:55:07;29.20;58.00
4651;DHT22;2338;49.602;8.722;2023-09-08T15:57:52;29.10;61.50
4651;DHT22;2338;49.602;8.722;2023-09-08T16:00:38;29.00;63.20
4651;DHT22;2338;49.602;8.722;2023-09-08T16:03:24;28.90;64.20
4651;DHT22;2338;49.602;8.722;2023-09-08T16:06:09;28.80;67.40
4651;DHT22;2338;49.602;8.722;2023-09-08T16:08:58;28.70;68.50
4651;DHT22;2338;49.602;8.722;2023-09-08T16:11:43;28.50;71.20
4651;DHT22;2338;49.602;8.722;2023-09-08T16:14:31;28.40;73.20
4651;DHT22;2338;49.602;8.722;2023-09-08T16:17:16;28.40;74.20
4651;DHT22;2338;49.602;8.722;2023-09-08T16:20:02;28.20;73.70
4651;DHT22;2338;49.602;8.722;2023-09-08T16:22:48;28.10;77.80
4651;DHT22;2338;49.602;8.722;2023-09-08T16:25:35;27.90;79.60
4651;DHT22;2338;49.602;8.722;2023-09-08T16:28:21;27.70;81.50
4651;DHT22;2338;49.602;8.722;2023-09-08T16:31:08;27.50;85.00
4651;DHT22;2338;49.602;8.722;2023-09-08T16:33:53;27.30;89.40
4651;DHT22;2338;49.602;8.722;2023-09-08T16:36:39;27.10;90.90
4651;DHT22;2338;49.602;8.722;2023-09-08T16:39:25;27.00;92.40
4651;DHT22;2338;49.602;8.722;2023-09-08T16:42:12;26.80;94.20
4651;DHT22;2338;49.602;8.722;2023-09-08T16:44:58;26.50;97.00
4651;DHT22;2338;49.602;8.722;2023-09-08T16:47:43;26.30;99.80
4651;DHT22;2338;49.602;8.722;2023-09-08T16:50:28;25.80;99.90
4651;DHT22;2338;49.602;8.722;2023-09-08T16:53:14;25.70;99.90
4651;DHT22;2338;49.602;8.722;2023-09-08T16:56:00;25.40;99.90
4651;DHT22;2338;49.602;8.722;2023-09-08T16:58:50;25.30;99.90
4651;DHT22;2338;49.602;8.722;2023-09-08T17:01:36;25.00;99.90
4651;DHT22;2338;49.602;8.722;2023-09-08T17:04:22;24.80;99.90
4651;DHT22;2338;49.602;8.722;2023-09-08T17:07:08;24.60;99.90
4651;DHT22;2338;49.602;8.722;2023-09-08T17:09:53;24.50;99.90
4651;DHT22;2338;49.602;8.722;2023-09-08T17:12:39;24.30;99.90
4651;DHT22;2338;49.602;8.722;2023-09-08T17:15:26;24.20;99.90
4651;DHT22;2338;49.602;8.722;2023-09-08T17:18:12;24.10;99.90
4651;DHT22;2338;49.602;8.722;2023-09-08T17:20:59;24.00;99.90
4651;DHT22;2338;49.602;8.722;2023-09-08T17:23:45;23.80;99.90
4651;DHT22;2338;49.602;8.722;2023-09-08T17:26:30;23.80;99.90
4651;DHT22;2338;49.602;8.722;2023-09-08T17:29:16;23.70;99.90
4651;DHT22;2338;49.602;8.722;2023-09-08T17:32:04;23.70;99.90
4651;DHT22;2338;49.602;8.722;2023-09-08T17:34:50;23.50;99.90
4651;DHT22;2338;49.602;8.722;2023-09-08T17:37:36;23.50;99.90
4651;DHT22;2338;49.602;8.722;2023-09-08T17:40:22;23.40;99.90
4651;DHT22;2338;49.602;8.722;2023-09-08T17:43:07;23.40;99.90
4651;DHT22;2338;49.602;8.722;2023-09-08T17:45:53;23.30;99.90
4651;DHT22;2338;49.602;8.722;2023-09-08T17:48:40;23.10;99.90
4651;DHT22;2338;49.602;8.722;2023-09-08T17:51:26;23.00;99.90
4651;DHT22;2338;49.602;8.722;2023-09-08T17:54:12;23.00;99.90
4651;DHT22;2338;49.602;8.722;2023-09-08T17:56:58;22.80;99.90
4651;DHT22;2338;49.602;8.722;2023-09-08T17:59:43;22.70;99.90
4651;DHT22;2338;49.602;8.722;2023-09-08T18:02:29;22.60;99.90
4651;DHT22;2338;49.602;8.722;2023-09-08T18:05:16;22.50;99.90
4651;DHT22;2338;49.602;8.722;2023-09-08T18:08:02;22.30;99.90